sensor_id;sensor_type;location;lat;lon;timestamp;temperature;humidity
292;DHT22;23311;48.776;9.162;2023-03-01T00:00:03;-1.00;95.50
292;DHT22;23311;48.776;9.162;2023-03-01T00:02:31;-1.10;95.50
292;DHT22;23311;48.776;9.162;2023-03-01T00:04:59;-1.10;95.50
292;DHT22;23311;48.776;9.162;2023-03-01T00:07:27;-1.00;95.50
292;DHT22;23311;48.776;9.162;2023-03-01T00:09:56;-0.90;95.50
292;DHT22;23311;48.776;9.162;2023-03-01T00:12:24;-0.90;95.50
292;DHT22;23311;48.776;9.162;2023-03-01T00:14:52;-1.00;95.50
292;DHT22;23311;48.776;9.162;2023-03-01T00:17:20;-0.90;95.50
292;DHT22;23311;48.776;9.162;2023-03-01T00:19:49;-0.90;95.50
292;DHT22;23311;48.776;9.162;2023-03-01T00:22:17;-1.00;95.50
292;DHT22;23311;48.776;9.162;2023-03-01T00:24:45;-0.90;95.50
292;DHT22;23311;48.776;9.162;2023-03-01T00:27:14;-0.90;95.50
292;DHT22;23311;48.776;9.162;2023-03-01T00:29:42;-1.10;95.50
292;DHT22;23311;48.776;9.162;2023-03-01T00:32:10;-1.10;95.50
292;DHT22;23311;48.776;9.162;2023-03-01T00:34:38;-1.10;95.50
292;DHT22;23311;48.776;9.162;2023-03-01T00:37:06;-1.10;95.50
292;DHT22;23311;48.776;9.162;2023-03-01T00:39:35;-1.20;95.50
292;DHT22;23311;48.776;9.162;2023-03-01T00:42:03;-1.30;95.50
292;DHT22;23311;48.776;9.162;2023-03-01T00:44:32;-1.30;95.50
292;DHT22;23311;48.776;9.162;2023-03-01T00:47:01;-1.40;95.50
292;DHT22;23311;48.776;9.162;2023-03-01T00:49:29;-1.30;95.50
292;DHT22;23311;48.776;9.162;2023-03-01T00:51:57;-1.40;95.50
292;DHT22;23311;48.776;9.162;2023-03-01T00:54:25;-1.40;95.50
292;DHT22;23311;48.776;9.162;2023-03-01T00:56:53;-1.40;95.50
292;DHT22;23311;48.776;9.162;2023-03-01T00:59:21;-1.50;95.50
292;DHT22;23311;48.776;9.162;2023-03-01T01:01:50;-1.50;95.50
292;DHT22;23311;48.776;9.162;2023-03-01T01:04:18;-1.50;95.50
292;DHT22;23311;48.776;9.162;2023-03-01T01:06:46;-1.50;95.50
292;DHT22;23311;48.776;9.162;2023-03-01T01:09:17;-1.60;95.50
292;DHT22;23311;48.776;9.162;2023-03-01T01:11:46;-1.60;95.50
292;DHT22;23311;48.776;9.162;2023-03-01T01:14:14;-1.70;95.50
292;DHT22;23311;48.776;9.162;2023-03-01T01:16:42;-1.60;95.50
292;DHT22;23311;48.776;9.162;2023-03-01T01:19:12;-1.60;95.50
292;DHT22;23311;48.776;9.162;2023-03-01T01:21:41;-1.50;95.50
292;DHT22;23311;48.776;9.162;2023-03-01T01:24:10;-1.60;95.50
292;DHT22;23311;48.776;9.162;2023-03-01T01:26:38;-1.60;95.50
292;DHT22;23311;48.776;9.162;2023-03-01T01:29:07;-1.50;95.50
292;DHT22;23311;48.776;9.162;2023-03-01T01:31:36;-1.50;95.50
292;DHT22;23311;48.776;9.162;2023-03-01T01:34:06;-1.40;95.50
292;DHT22;23311;48.776;9.162;2023-03-01T01:36:37;-1.50;95.50
292;DHT22;23311;48.776;9.162;2023-03-01T01:39:05;-1.50;95.50
292;DHT22;23311;48.776;9.162;2023-03-01T01:41:33;-1.40;95.50
292;DHT22;23311;48.776;9.162;2023-03-01T01:44:14;-1.50;95.50
292;DHT22;23311;48.776;9.162;2023-03-01T01:46:45;-1.40;95.50
292;DHT22;23311;48.776;9.162;2023-03-01T01:49:22;-1.40;95.50
292;DHT22;23311;48.776;9.162;2023-03-01T01:51:57;-1.50;95.50
292;DHT22;23311;48.776;9.162;2023-03-01T01:54:30;-1.80;95.50
292;DHT22;23311;48.776;9.162;2023-03-01T01:57:03;-1.60;95.50
292;DHT22;23311;48.776;9.162;2023-03-01T01:59:32;-1.70;95.50
292;DHT22;23311;48.776;9.162;2023-03-01T02:02:02;-1.70;95.50
292;DHT22;23311;48.776;9.162;2023-03-01T02:04:32;-1.50;95.50
292;DHT22;23311;48.776;9.162;2023-03-01T02:07:06;-1.20;95.50
292;DHT22;23311;48.776;9.162;2023-03-01T02:09:37;-1.10;95.50
292;DHT22;23311;48.776;9.162;2023-03-01T02:12:05;-1.00;95.50
292;DHT22;23311;48.776;9.162;2023-03-01T02:14:33;-0.90;95.50
292;DHT22;23311;48.776;9.162;2023-03-01T02:17:01;-0.80;95.50
292;DHT22;23311;48.776;9.162;2023-03-01T02:19:41;-0.80;95.50
292;DHT22;23311;48.776;9.162;2023-03-01T02:22:20;-0.70;95.50
292;DHT22;23311;48.776;9.162;2023-03-01T02:24:59;-0.60;95.50
292;DHT22;23311;48.776;9.162;2023-03-01T02:27:35;-0.50;95.50
292;DHT22;23311;48.776;9.162;2023-03-01T02:30:07;-0.50;95.50
292;DHT22;23311;48.776;9.162;2023-03-01T02:32:40;-0.50;95.50
292;DHT22;23311;48.776;9.162;2023-03-01T02:35:09;-0.50;95.50
292;DHT22;23311;48.776;9.162;2023-03-01T02:37:39;-0.40;95.50
292;DHT22;23311;48.776;9.162;2023-03-01T02:40:10;-0.40;95.50
292;DHT22;23311;48.776;9.162;2023-03-01T02:42:45;-0.40;95.50
292;DHT22;23311;48.776;9.162;2023-03-01T02:45:16;-0.50;95.50
292;DHT22;23311;48.776;9.162;2023-03-01T02:47:44;-0.40;95.50
292;DHT22;23311;48.776;9.162;2023-03-01T02:50:23;-0.40;95.50
292;DHT22;23311;48.776;9.162;2023-03-01T02:52:56;-0.40;95.50
292;DHT22;23311;48.776;9.162;2023-03-01T02:55:25;-0.40;95.50
292;DHT22;23311;48.776;9.162;2023-03-01T02:57:54;-0.40;95.50
292;DHT22;23311;48.776;9.162;2023-03-01T03:00:28;-0.40;95.50
292;DHT22;23311;48.776;9.162;2023-03-01T03:02:59;-0.40;95.50
292;DHT22;23311;48.776;9.162;2023-03-01T03:05:29;-0.40;95.50
292;DHT22;23311;48.776;9.162;2023-03-01T03:07:58;-0.40;95.50
292;DHT22;23311;48.776;9.162;2023-03-01T03:10:29;-0.50;95.50
292;DHT22;23311;48.776;9.162;2023-03-01T03:12:59;-0.40;95.50
292;DHT22;23311;48.776;9.162;2023-03-01T03:15:29;-0.40;95.50
292;DHT22;23311;48.776;9.162;2023-03-01T03:17:58;-0.40;95.50
292;DHT22;23311;48.776;9.162;2023-03-01T03:20:27;-0.40;95.50
292;DHT22;23311;48.776;9.162;2023-03-01T03:22:57;-0.40;95.50
292;DHT22;23311;48.776;9.162;2023-03-01T03:25:27;-0.30;95.50
292;DHT22;23311;48.776;9.162;2023-03-01T03:27:56;-0.30;95.50
292;DHT22;23311;48.776;9.162;2023-03-01T03:30:26;-0.30;95.50
292;DHT22;23311;48.776;9.162;2023-03-01T03:32:57;-0.30;95.50
292;DHT22;23311;48.776;9.162;2023-03-01T03:35:28;-0.20;95.50
292;DHT22;23311;48.776;9.162;2023-03-01T03:37:57;-0.20;95.50
292;DHT22;23311;48.776;9.162;2023-03-01T03:40:34;-0.30;95.50
292;DHT22;23311;48.776;9.162;2023-03-01T03:43:04;-0.30;95.50
292;DHT22;23311;48.776;9.162;2023-03-01T03:45:32;-0.20;95.50
292;DHT22;23311;48.776;9.162;2023-03-01T03:48:04;-0.20;95.50
292;DHT22;23311;48.776;9.162;2023-03-01T03:50:33;-0.20;95.50
292;DHT22;23311;48.776;9.162;2023-03-01T03:53:03;-0.10;95.50
292;DHT22;23311;48.776;9.162;2023-03-01T03:55:32;-0.10;95.50
292;DHT22;23311;48.776;9.162;2023-03-01T03:58:02;-0.10;95.50
292;DHT22;23311;48.776;9.162;2023-03-01T04:00:33;-0.10;95.50
292;DHT22;23311;48.776;9.162;2023-03-01T04:03:04;-0.10;95.50
292;DHT22;23311;48.776;9.162;2023-03-01T04:05:32;-0.10;95.50
292;DHT22;23311;48.776;9.162;2023-03-01T04:08:00;-0.20;95.50
292;DHT22;23311;48.776;9.162;2023-03-01T04:10:35;-0.20;95.50
292;DHT22;23311;48.776;9.162;2023-03-01T04:13:04;-0.20;95.50
292;DHT22;23311;48.776;9.162;2023-03-01T04:15:33;-0.10;95.50
292;DHT22;23311;48.776;9.162;2023-03-01T04:18:03;-0.10;95.50
292;DHT22;23311;48.776;9.162;2023-03-01T04:20:33;-0.10;95.50
292;DHT22;23311;48.776;9.162;2023-03-01T04:23:06;-0.10;95.50
292;DHT22;23311;48.776;9.162;2023-03-01T04:25:41;-0.10;95.50
292;DHT22;23311;48.776;9.162;2023-03-01T04:28:09;0.00;95.50
292;DHT22;23311;48.776;9.162;2023-03-01T04:30:38;-0.10;95.50
292;DHT22;23311;48.776;9.162;2023-03-01T04:33:10;0.00;95.50
292;DHT22;23311;48.776;9.162;2023-03-01T04:35:38;0.00;95.50
292;DHT22;23311;48.776;9.162;2023-03-01T04:38:07;0.00;95.50
292;DHT22;23311;48.776;9.162;2023-03-01T04:40:36;0.00;95.50
292;DHT22;23311;48.776;9.162;2023-03-01T04:43:04;0.10;95.50
292;DHT22;23311;48.776;9.162;2023-03-01T04:45:33;0.10;95.50
292;DHT22;23311;48.776;9.162;2023-03-01T04:48:03;0.10;95.50
292;DHT22;23311;48.776;9.162;2023-03-01T04:50:33;0.10;95.50
292;DHT22;23311;48.776;9.162;2023-03-01T04:53:01;0.10;95.50
292;DHT22;23311;48.776;9.162;2023-03-01T04:55:29;0.10;95.50
292;DHT22;23311;48.776;9.162;2023-03-01T04:57:58;0.20;95.50
292;DHT22;23311;48.776;9.162;2023-03-01T05:00:26;0.20;95.50
292;DHT22;23311;48.776;9.162;2023-03-01T05:02:56;0.20;95.50
292;DHT22;23311;48.776;9.162;2023-03-01T05:05:28;0.20;95.50
292;DHT22;23311;48.776;9.162;2023-03-01T05:07:58;0.20;95.50
292;DHT22;23311;48.776;9.162;2023-03-01T05:10:28;0.20;95.50
292;DHT22;23311;48.776;9.162;2023-03-01T05:12:57;0.30;95.50
292;DHT22;23311;48.776;9.162;2023-03-01T05:15:25;0.30;95.50
292;DHT22;23311;48.776;9.162;2023-03-01T05:17:55;0.30;95.50
292;DHT22;23311;48.776;9.162;2023-03-01T05:20:25;0.40;95.50
292;DHT22;23311;48.776;9.162;2023-03-01T05:22:57;0.40;95.50
292;DHT22;23311;48.776;9.162;2023-03-01T05:25:26;0.40;95.50
292;DHT22;23311;48.776;9.162;2023-03-01T05:28:00;0.30;95.50
292;DHT22;23311;48.776;9.162;2023-03-01T05:30:31;0.40;95.50
292;DHT22;23311;48.776;9.162;2023-03-01T05:32:59;0.40;95.50
292;DHT22;23311;48.776;9.162;2023-03-01T05:35:28;0.40;95.50
292;DHT22;23311;48.776;9.162;2023-03-01T05:38:00;0.40;95.50
292;DHT22;23311;48.776;9.162;2023-03-01T05:40:28;0.40;95.50
292;DHT22;23311;48.776;9.162;2023-03-01T05:42:57;0.40;95.50
292;DHT22;23311;48.776;9.162;2023-03-01T05:45:26;0.40;95.50
292;DHT22;23311;48.776;9.162;2023-03-01T05:47:54;0.40;95.50
292;DHT22;23311;48.776;9.162;2023-03-01T05:50:24;0.40;95.50
292;DHT22;23311;48.776;9.162;2023-03-01T05:52:57;0.40;95.50
292;DHT22;23311;48.776;9.162;2023-03-01T05:55:29;0.40;95.50
292;DHT22;23311;48.776;9.162;2023-03-01T05:57:58;0.40;95.50
292;DHT22;23311;48.776;9.162;2023-03-01T06:00:27;0.40;95.50
292;DHT22;23311;48.776;9.162;2023-03-01T06:02:56;0.40;95.50
292;DHT22;23311;48.776;9.162;2023-03-01T06:05:24;0.40;95.50
292;DHT22;23311;48.776;9.162;2023-03-01T06:07:53;0.40;95.50
292;DHT22;23311;48.776;9.162;2023-03-01T06:10:22;0.50;95.50
292;DHT22;23311;48.776;9.162;2023-03-01T06:12:51;0.50;95.50
292;DHT22;23311;48.776;9.162;2023-03-01T06:15:20;0.50;95.50
292;DHT22;23311;48.776;9.162;2023-03-01T06:17:48;0.50;95.50
292;DHT22;23311;48.776;9.162;2023-03-01T06:20:18;0.60;95.50
292;DHT22;23311;48.776;9.162;2023-03-01T06:22:48;0.60;95.50
292;DHT22;23311;48.776;9.162;2023-03-01T06:25:18;0.60;95.50
292;DHT22;23311;48.776;9.162;2023-03-01T06:27:47;0.60;95.50
292;DHT22;23311;48.776;9.162;2023-03-01T06:30:22;0.60;95.50
292;DHT22;23311;48.776;9.162;2023-03-01T06:32:50;0.70;95.50
292;DHT22;23311;48.776;9.162;2023-03-01T06:35:19;0.70;95.50
292;DHT22;23311;48.776;9.162;2023-03-01T06:37:47;0.60;95.50
292;DHT22;23311;48.776;9.162;2023-03-01T06:40:15;0.60;95.50
292;DHT22;23311;48.776;9.162;2023-03-01T06:42:48;0.60;95.50
292;DHT22;23311;48.776;9.162;2023-03-01T06:45:17;0.70;95.50
292;DHT22;23311;48.776;9.162;2023-03-01T06:47:47;0.70;95.50
292;DHT22;23311;48.776;9.162;2023-03-01T06:50:16;0.80;95.50
292;DHT22;23311;48.776;9.162;2023-03-01T06:52:45;0.90;95.50
292;DHT22;23311;48.776;9.162;2023-03-01T06:55:16;0.90;95.50
292;DHT22;23311;48.776;9.162;2023-03-01T06:57:44;1.00;95.50
292;DHT22;23311;48.776;9.162;2023-03-01T07:00:14;1.10;95.50
292;DHT22;23311;48.776;9.162;2023-03-01T07:02:42;1.10;95.50
292;DHT22;23311;48.776;9.162;2023-03-01T07:05:11;1.20;95.50
292;DHT22;23311;48.776;9.162;2023-03-01T07:07:39;1.20;95.50
292;DHT22;23311;48.776;9.162;2023-03-01T07:10:10;1.20;95.50
292;DHT22;23311;48.776;9.162;2023-03-01T07:12:41;1.20;95.50
292;DHT22;23311;48.776;9.162;2023-03-01T07:15:10;1.10;95.50
292;DHT22;23311;48.776;9.162;2023-03-01T07:17:38;1.00;95.50
292;DHT22;23311;48.776;9.162;2023-03-01T07:20:07;1.00;95.50
292;DHT22;23311;48.776;9.162;2023-03-01T07:22:36;0.90;95.50
292;DHT22;23311;48.776;9.162;2023-03-01T07:25:07;0.90;95.50
292;DHT22;23311;48.776;9.162;2023-03-01T07:27:35;1.00;95.50
292;DHT22;23311;48.776;9.162;2023-03-01T07:30:05;1.00;95.50
292;DHT22;23311;48.776;9.162;2023-03-01T07:32:33;1.00;95.50
292;DHT22;23311;48.776;9.162;2023-03-01T07:35:01;1.00;95.50
292;DHT22;23311;48.776;9.162;2023-03-01T07:37:29;1.00;95.50
292;DHT22;23311;48.776;9.162;2023-03-01T07:39:59;0.90;95.50
292;DHT22;23311;48.776;9.162;2023-03-01T07:42:27;1.00;95.50
292;DHT22;23311;48.776;9.162;2023-03-01T07:44:55;1.00;95.50
292;DHT22;23311;48.776;9.162;2023-03-01T07:47:23;1.00;95.50
292;DHT22;23311;48.776;9.162;2023-03-01T07:49:51;1.00;95.50
292;DHT22;23311;48.776;9.162;2023-03-01T07:52:19;1.00;95.50
292;DHT22;23311;48.776;9.162;2023-03-01T07:54:47;1.00;95.50
292;DHT22;23311;48.776;9.162;2023-03-01T07:57:17;1.10;95.50
292;DHT22;23311;48.776;9.162;2023-03-01T07:59:45;1.10;95.50
292;DHT22;23311;48.776;9.162;2023-03-01T08:02:13;1.10;95.50
292;DHT22;23311;48.776;9.162;2023-03-01T08:04:41;1.20;95.50
292;DHT22;23311;48.776;9.162;2023-03-01T08:07:09;1.20;95.50
292;DHT22;23311;48.776;9.162;2023-03-01T08:09:38;1.20;95.50
292;DHT22;23311;48.776;9.162;2023-03-01T08:12:06;1.30;95.50
292;DHT22;23311;48.776;9.162;2023-03-01T08:14:39;1.40;95.50
292;DHT22;23311;48.776;9.162;2023-03-01T08:17:07;1.40;95.50
292;DHT22;23311;48.776;9.162;2023-03-01T08:19:36;1.40;95.50
292;DHT22;23311;48.776;9.162;2023-03-01T08:22:04;1.40;95.50
292;DHT22;23311;48.776;9.162;2023-03-01T08:24:32;1.60;95.50
292;DHT22;23311;48.776;9.162;2023-03-01T08:27:00;1.70;95.50
292;DHT22;23311;48.776;9.162;2023-03-01T08:29:30;1.70;95.50
292;DHT22;23311;48.776;9.162;2023-03-01T08:32:00;1.70;95.50
292;DHT22;23311;48.776;9.162;2023-03-01T08:34:28;1.90;95.50
292;DHT22;23311;48.776;9.162;2023-03-01T08:36:58;2.00;95.40
292;DHT22;23311;48.776;9.162;2023-03-01T08:39:26;1.80;95.30
292;DHT22;23311;48.776;9.162;2023-03-01T08:41:54;1.80;95.50
292;DHT22;23311;48.776;9.162;2023-03-01T08:44:22;1.90;95.50
292;DHT22;23311;48.776;9.162;2023-03-01T08:46:51;2.10;94.90
292;DHT22;23311;48.776;9.162;2023-03-01T08:49:21;2.00;94.80
292;DHT22;23311;48.776;9.162;2023-03-01T08:51:49;2.20;94.70
292;DHT22;23311;48.776;9.162;2023-03-01T08:54:19;2.10;94.70
292;DHT22;23311;48.776;9.162;2023-03-01T08:56:48;2.20;94.60
292;DHT22;23311;48.776;9.162;2023-03-01T08:59:17;2.30;94.30
292;DHT22;23311;48.776;9.162;2023-03-01T09:01:46;2.40;94.00
292;DHT22;23311;48.776;9.162;2023-03-01T09:04:14;2.50;93.50
292;DHT22;23311;48.776;9.162;2023-03-01T09:06:44;2.50;93.60
292;DHT22;23311;48.776;9.162;2023-03-01T09:09:13;2.60;93.60
292;DHT22;23311;48.776;9.162;2023-03-01T09:11:43;2.70;93.00
292;DHT22;23311;48.776;9.162;2023-03-01T09:14:13;2.60;93.10
292;DHT22;23311;48.776;9.162;2023-03-01T09:16:41;2.80;93.10
292;DHT22;23311;48.776;9.162;2023-03-01T09:19:10;2.80;92.80
292;DHT22;23311;48.776;9.162;2023-03-01T09:21:38;2.80;92.80
292;DHT22;23311;48.776;9.162;2023-03-01T09:24:12;2.80;92.40
292;DHT22;23311;48.776;9.162;2023-03-01T09:26:41;2.80;92.70
292;DHT22;23311;48.776;9.162;2023-03-01T09:29:09;3.00;92.60
292;DHT22;23311;48.776;9.162;2023-03-01T09:31:37;3.10;91.90
292;DHT22;23311;48.776;9.162;2023-03-01T09:34:07;3.20;91.60
292;DHT22;23311;48.776;9.162;2023-03-01T09:36:36;3.20;91.50
292;DHT22;23311;48.776;9.162;2023-03-01T09:39:05;3.20;91.10
292;DHT22;23311;48.776;9.162;2023-03-01T09:41:44;3.20;91.40
292;DHT22;23311;48.776;9.162;2023-03-01T09:44:22;3.20;91.40
292;DHT22;23311;48.776;9.162;2023-03-01T09:46:54;3.30;91.30
292;DHT22;23311;48.776;9.162;2023-03-01T09:49:25;3.50;91.10
292;DHT22;23311;48.776;9.162;2023-03-01T09:51:57;3.70;90.60
292;DHT22;23311;48.776;9.162;2023-03-01T09:54:26;3.60;90.30
292;DHT22;23311;48.776;9.162;2023-03-01T09:57:18;3.60;90.40
292;DHT22;23311;48.776;9.162;2023-03-01T09:59:59;3.80;89.80
292;DHT22;23311;48.776;9.162;2023-03-01T10:02:38;4.00;89.40
292;DHT22;23311;48.776;9.162;2023-03-01T10:05:19;4.20;89.10
292;DHT22;23311;48.776;9.162;2023-03-01T10:07:58;4.00;88.60
292;DHT22;23311;48.776;9.162;2023-03-01T10:10:34;4.10;89.10
292;DHT22;23311;48.776;9.162;2023-03-01T10:13:10;4.30;88.60
292;DHT22;23311;48.776;9.162;2023-03-01T10:15:44;4.50;88.20
292;DHT22;23311;48.776;9.162;2023-03-01T10:18:18;4.70;87.60
292;DHT22;23311;48.776;9.162;2023-03-01T10:20:52;4.70;86.20
292;DHT22;23311;48.776;9.162;2023-03-01T10:23:23;4.60;86.40
292;DHT22;23311;48.776;9.162;2023-03-01T10:26:06;4.70;86.20
292;DHT22;23311;48.776;9.162;2023-03-01T10:28:45;4.70;86.30
292;DHT22;23311;48.776;9.162;2023-03-01T10:31:19;5.00;85.70
292;DHT22;23311;48.776;9.162;2023-03-01T10:33:49;5.30;85.20
292;DHT22;23311;48.776;9.162;2023-03-01T10:36:21;6.90;82.90
292;DHT22;23311;48.776;9.162;2023-03-01T10:38:52;8.30;78.80
292;DHT22;23311;48.776;9.162;2023-03-01T10:41:21;8.90;76.80
292;DHT22;23311;48.776;9.162;2023-03-01T10:43:54;9.40;74.70
292;DHT22;23311;48.776;9.162;2023-03-01T10:46:25;9.20;74.50
292;DHT22;23311;48.776;9.162;2023-03-01T10:49:06;8.30;75.10
292;DHT22;23311;48.776;9.162;2023-03-01T10:51:35;6.60;78.70
292;DHT22;23311;48.776;9.162;2023-03-01T10:54:05;5.90;81.10
292;DHT22;23311;48.776;9.162;2023-03-01T10:56:47;5.60;82.30
292;DHT22;23311;48.776;9.162;2023-03-01T10:59:27;5.50;83.30
292;DHT22;23311;48.776;9.162;2023-03-01T11:02:17;5.50;83.30
292;DHT22;23311;48.776;9.162;2023-03-01T11:04:59;5.80;83.10
292;DHT22;23311;48.776;9.162;2023-03-01T11:07:29;6.40;82.00
292;DHT22;23311;48.776;9.162;2023-03-01T11:09:57;6.90;80.50
292;DHT22;23311;48.776;9.162;2023-03-01T11:12:25;6.90;80.10
292;DHT22;23311;48.776;9.162;2023-03-01T11:14:57;7.10;79.70
292;DHT22;23311;48.776;9.162;2023-03-01T11:17:29;7.70;78.90
292;DHT22;23311;48.776;9.162;2023-03-01T11:20:13;8.80;76.30
292;DHT22;23311;48.776;9.162;2023-03-01T11:22:47;9.00;75.30
292;DHT22;23311;48.776;9.162;2023-03-01T11:25:21;9.40;74.40
292;DHT22;23311;48.776;9.162;2023-03-01T11:27:52;9.60;73.80
292;DHT22;23311;48.776;9.162;2023-03-01T11:30:24;9.10;74.00
292;DHT22;23311;48.776;9.162;2023-03-01T11:33:20;8.40;75.40
292;DHT22;23311;48.776;9.162;2023-03-01T11:35:57;8.20;76.40
292;DHT22;23311;48.776;9.162;2023-03-01T11:38:29;8.10;76.80
292;DHT22;23311;48.776;9.162;2023-03-01T11:41:05;8.30;76.90
292;DHT22;23311;48.776;9.162;2023-03-01T11:43:41;8.60;76.10
292;DHT22;23311;48.776;9.162;2023-03-01T11:46:36;8.40;75.70
292;DHT22;23311;48.776;9.162;2023-03-01T11:49:21;8.00;76.60
292;DHT22;23311;48.776;9.162;2023-03-01T11:52:01;8.20;76.70
292;DHT22;23311;48.776;9.162;2023-03-01T11:54:42;8.70;75.80
292;DHT22;23311;48.776;9.162;2023-03-01T11:57:23;9.00;74.90
292;DHT22;23311;48.776;9.162;2023-03-01T12:00:25;8.90;74.80
292;DHT22;23311;48.776;9.162;2023-03-01T12:06:23;9.50;73.70
292;DHT22;23311;48.776;9.162;2023-03-01T12:09:02;10.60;72.40
292;DHT22;23311;48.776;9.162;2023-03-01T12:11:41;11.20;70.40
292;DHT22;23311;48.776;9.162;2023-03-01T12:14:42;10.50;70.30
292;DHT22;23311;48.776;9.162;2023-03-01T12:17:36;10.10;71.80
292;DHT22;23311;48.776;9.162;2023-03-01T12:20:31;10.00;72.60
292;DHT22;23311;48.776;9.162;2023-03-01T12:23:22;10.40;72.20
292;DHT22;23311;48.776;9.162;2023-03-01T12:25:58;11.00;70.80
292;DHT22;23311;48.776;9.162;2023-03-01T12:28:52;11.00;70.30
292;DHT22;23311;48.776;9.162;2023-03-01T12:37:21;10.90;70.10
292;DHT22;23311;48.776;9.162;2023-03-01T12:40:04;10.60;70.40
292;DHT22;23311;48.776;9.162;2023-03-01T12:42:41;10.10;71.40
292;DHT22;23311;48.776;9.162;2023-03-01T12:45:31;9.70;72.40
292;DHT22;23311;48.776;9.162;2023-03-01T12:48:14;9.80;73.00
292;DHT22;23311;48.776;9.162;2023-03-01T12:50:48;10.40;71.70
292;DHT22;23311;48.776;9.162;2023-03-01T12:53:23;10.90;71.40
292;DHT22;23311;48.776;9.162;2023-03-01T12:55:53;11.20;69.90
292;DHT22;23311;48.776;9.162;2023-03-01T12:58:26;11.20;69.70
292;DHT22;23311;48.776;9.162;2023-03-01T13:01:36;11.50;69.30
292;DHT22;23311;48.776;9.162;2023-03-01T13:04:27;11.50;68.80
292;DHT22;23311;48.776;9.162;2023-03-01T13:07:16;11.40;69.40
292;DHT22;23311;48.776;9.162;2023-03-01T13:09:54;11.00;69.70
292;DHT22;23311;48.776;9.162;2023-03-01T13:12:43;11.10;70.00
292;DHT22;23311;48.776;9.162;2023-03-01T13:15:32;11.10;69.80
292;DHT22;23311;48.776;9.162;2023-03-01T13:18:03;11.10;69.90
292;DHT22;23311;48.776;9.162;2023-03-01T13:20:34;11.10;69.90
292;DHT22;23311;48.776;9.162;2023-03-01T13:23:09;11.00;70.20
292;DHT22;23311;48.776;9.162;2023-03-01T13:26:02;10.60;70.60
292;DHT22;23311;48.776;9.162;2023-03-01T13:34:46;10.10;72.60
292;DHT22;23311;48.776;9.162;2023-03-01T13:37:33;10.90;71.50
292;DHT22;23311;48.776;9.162;2023-03-01T13:42:53;10.40;71.70
292;DHT22;23311;48.776;9.162;2023-03-01T13:45:39;9.80;72.60
292;DHT22;23311;48.776;9.162;2023-03-01T13:48:11;9.10;74.50
292;DHT22;23311;48.776;9.162;2023-03-01T13:50:46;9.10;74.90
292;DHT22;23311;48.776;9.162;2023-03-01T13:53:17;9.00;75.10
292;DHT22;23311;48.776;9.162;2023-03-01T13:55:48;8.90;75.40
292;DHT22;23311;48.776;9.162;2023-03-01T13:58:21;8.90;75.60
292;DHT22;23311;48.776;9.162;2023-03-01T14:00:56;8.80;75.90
292;DHT22;23311;48.776;9.162;2023-03-01T14:03:25;8.70;76.10
292;DHT22;23311;48.776;9.162;2023-03-01T14:06:05;8.60;76.30
292;DHT22;23311;48.776;9.162;2023-03-01T14:08:45;8.60;76.60
292;DHT22;23311;48.776;9.162;2023-03-01T14:14:18;8.60;76.90
292;DHT22;23311;48.776;9.162;2023-03-01T14:20:20;8.30;77.30
292;DHT22;23311;48.776;9.162;2023-03-01T14:22:51;8.10;77.90
292;DHT22;23311;48.776;9.162;2023-03-01T14:25:26;7.90;78.50
292;DHT22;23311;48.776;9.162;2023-03-01T14:27:59;7.80;78.80
292;DHT22;23311;48.776;9.162;2023-03-01T14:30:35;7.90;79.00
292;DHT22;23311;48.776;9.162;2023-03-01T14:33:06;7.90;79.20
292;DHT22;23311;48.776;9.162;2023-03-01T14:35:52;8.10;79.00
292;DHT22;23311;48.776;9.162;2023-03-01T14:38:22;8.00;79.10
292;DHT22;23311;48.776;9.162;2023-03-01T14:40:53;8.00;79.00
292;DHT22;23311;48.776;9.162;2023-03-01T14:43:23;8.00;79.30
292;DHT22;23311;48.776;9.162;2023-03-01T14:45:53;8.00;79.20
292;DHT22;23311;48.776;9.162;2023-03-01T14:48:22;8.00;79.30
292;DHT22;23311;48.776;9.162;2023-03-01T14:50:50;7.80;79.70
292;DHT22;23311;48.776;9.162;2023-03-01T14:53:21;7.80;79.90
292;DHT22;23311;48.776;9.162;2023-03-01T14:55:56;7.70;80.10
292;DHT22;23311;48.776;9.162;2023-03-01T14:58:31;7.80;80.10
292;DHT22;23311;48.776;9.162;2023-03-01T15:01:03;7.70;80.20
292;DHT22;23311;48.776;9.162;2023-03-01T15:03:34;7.70;80.40
292;DHT22;23311;48.776;9.162;2023-03-01T15:06:05;7.80;80.40
292;DHT22;23311;48.776;9.162;2023-03-01T15:08:35;7.90;80.00
292;DHT22;23311;48.776;9.162;2023-03-01T15:11:15;7.90;80.00
292;DHT22;23311;48.776;9.162;2023-03-01T15:13:44;7.90;80.10
292;DHT22;23311;48.776;9.162;2023-03-01T15:16:17;7.80;80.30
292;DHT22;23311;48.776;9.162;2023-03-01T15:18:48;7.80;80.40
292;DHT22;23311;48.776;9.162;2023-03-01T15:21:18;7.70;80.40
292;DHT22;23311;48.776;9.162;2023-03-01T15:23:50;7.60;80.50
292;DHT22;23311;48.776;9.162;2023-03-01T15:26:25;7.50;80.80
292;DHT22;23311;48.776;9.162;2023-03-01T15:28:58;7.40;81.20
292;DHT22;23311;48.776;9.162;2023-03-01T15:31:31;7.40;81.20
292;DHT22;23311;48.776;9.162;2023-03-01T15:34:21;7.40;81.30
292;DHT22;23311;48.776;9.162;2023-03-01T15:36:51;7.30;81.40
292;DHT22;23311;48.776;9.162;2023-03-01T15:39:33;7.30;81.60
292;DHT22;23311;48.776;9.162;2023-03-01T15:42:06;7.40;81.60
292;DHT22;23311;48.776;9.162;2023-03-01T15:44:36;7.40;81.70
292;DHT22;23311;48.776;9.162;2023-03-01T15:47:27;7.40;81.40
292;DHT22;23311;48.776;9.162;2023-03-01T15:49:58;7.30;81.50
292;DHT22;23311;48.776;9.162;2023-03-01T15:52:28;7.30;81.70
292;DHT22;23311;48.776;9.162;2023-03-01T15:54:59;7.30;81.60
292;DHT22;23311;48.776;9.162;2023-03-01T15:57:28;7.30;81.50
292;DHT22;23311;48.776;9.162;2023-03-01T15:59:56;7.30;81.10
292;DHT22;23311;48.776;9.162;2023-03-01T16:02:25;7.30;81.00
292;DHT22;23311;48.776;9.162;2023-03-01T16:04:54;7.20;80.90
292;DHT22;23311;48.776;9.162;2023-03-01T16:07:23;7.20;81.10
292;DHT22;23311;48.776;9.162;2023-03-01T16:09:53;7.20;81.40
292;DHT22;23311;48.776;9.162;2023-03-01T16:12:23;7.20;81.30
292;DHT22;23311;48.776;9.162;2023-03-01T16:14:51;7.10;81.20
292;DHT22;23311;48.776;9.162;2023-03-01T16:17:19;7.00;81.20
292;DHT22;23311;48.776;9.162;2023-03-01T16:19:49;7.00;81.40
292;DHT22;23311;48.776;9.162;2023-03-01T16:22:17;7.00;81.40
292;DHT22;23311;48.776;9.162;2023-03-01T16:24:51;6.90;81.50
292;DHT22;23311;48.776;9.162;2023-03-01T16:27:19;6.90;81.60
292;DHT22;23311;48.776;9.162;2023-03-01T16:29:47;6.80;81.70
292;DHT22;23311;48.776;9.162;2023-03-01T16:32:15;6.80;81.70
292;DHT22;23311;48.776;9.162;2023-03-01T16:34:43;6.70;82.00
292;DHT22;23311;48.776;9.162;2023-03-01T16:37:13;6.70;82.40
292;DHT22;23311;48.776;9.162;2023-03-01T16:39:41;6.70;82.60
292;DHT22;23311;48.776;9.162;2023-03-01T16:42:09;6.60;83.10
292;DHT22;23311;48.776;9.162;2023-03-01T16:44:37;6.50;83.20
292;DHT22;23311;48.776;9.162;2023-03-01T16:47:06;6.50;83.20
292;DHT22;23311;48.776;9.162;2023-03-01T16:49:34;6.40;83.40
292;DHT22;23311;48.776;9.162;2023-03-01T16:52:05;6.30;83.80
292;DHT22;23311;48.776;9.162;2023-03-01T16:54:35;6.30;83.90
292;DHT22;23311;48.776;9.162;2023-03-01T16:57:03;6.10;84.00
292;DHT22;23311;48.776;9.162;2023-03-01T16:59:31;6.00;84.30
292;DHT22;23311;48.776;9.162;2023-03-01T17:01:59;6.00;84.40
292;DHT22;23311;48.776;9.162;2023-03-01T17:04:28;5.90;84.70
292;DHT22;23311;48.776;9.162;2023-03-01T17:06:56;5.80;84.90